SLCO/CIJ METAR and TAF weather

Enter ICAO airport designator
Station Type Date Time Source
SLCO METAR 2019/08/23 23:00 UTC NOAA

SLCO 232300Z 16007KT 4000 FU FEW030 30/22 Q1013


Station Type Date Time Source
SLCO Decoded METAR 2019/08/23 23:00 UTC NOAA

Station name not available
Aug 23, 2019 - 07:00 PM EDT / 2019.08.23 2300 UTC
Wind: from the SSE (160 degrees) at 8 MPH (7 KT):0
Visibility: 2 mile(s):0
Sky conditions: mostly clear
Weather: smoke
Temperature: 86 F (30 C)
Heat index: 91.8 F (33.2 C):1
Dew Point: 71 F (22 C)
Relative Humidity: 62%
Pressure (altimeter): 29.91 in. Hg (1013 hPa)
ob: SLCO 232300Z 16007KT 4000 FU FEW030 30/22 Q1013
cycle: 23

Station Type Date Time Source
SLCO TAF 2019/08/24 06:35 UTC NOAA

TAF SLCO 240400Z 2406/2406 00000KT 4000 FU FEW012 TX36/2420Z TN21/ 2411Z
BECMG 2414/2417 16012KT FEW023

Example: see airport list